Time;durP1;ratioP1;P1;durP2;ratioP2;P2;SDS_P1;SDS_P2;PMS_P1;PMS_P2;Temp;Humidity;BMP_temperature;BMP_pressure;BME280_temperature;BME280_humidity;BME280_pressure;Samples;Min_cycle;Max_cycle;Signal;HPM_P1;HPM_P2
2022/01/06 00:01:51;;;;;;;3.50;1.20;;;5.70;87.20;;;;;;10031136;28;20119;-66
2022/01/06 00:06:43;;;;;;;3.15;1.65;;;5.70;87.10;;;;;;10044672;28;20056;-67
2022/01/06 00:11:34;;;;;;;5.57;1.35;;;5.70;87.20;;;;;;10049318;28;20037;-65
2022/01/06 00:16:43;;;;;;;2.30;1.38;;;5.70;87.60;;;;;;10043056;28;20111;-67
2022/01/06 00:26:45;;;;;;;3.58;1.60;;;5.50;88.00;;;;;;10047389;28;20040;-66
2022/01/06 00:31:37;;;;;;;2.67;1.50;;;5.40;88.10;;;;;;10050311;28;20047;-67
2022/01/06 00:36:27;;;;;;;3.17;1.45;;;5.60;87.90;;;;;;10029504;28;20034;-67
2022/01/06 00:41:18;;;;;;;3.75;1.50;;;5.60;87.70;;;;;;10029377;28;20404;-67
2022/01/06 00:46:09;;;;;;;2.08;1.55;;;5.50;88.00;;;;;;10046531;28;20029;-66
2022/01/06 00:51:00;;;;;;;2.60;1.50;;;5.60;87.90;;;;;;10044937;28;20037;-68
2022/01/06 00:55:51;;;;;;;4.00;1.40;;;5.60;87.80;;;;;;10041835;28;20033;-66
2022/01/06 01:00:42;;;;;;;3.03;1.42;;;5.70;87.80;;;;;;10044589;28;20056;-66
2022/01/06 01:05:33;;;;;;;3.67;1.98;;;5.70;87.90;;;;;;10049494;28;20018;-67
2022/01/06 01:10:23;;;;;;;3.30;1.42;;;5.70;87.90;;;;;;10050274;28;20196;-67
2022/01/06 01:15:24;;;;;;;4.97;1.45;;;5.60;88.20;;;;;;10030812;28;20121;-66
2022/01/06 01:20:16;;;;;;;5.95;2.78;;;5.60;88.30;;;;;;10044329;28;20065;-67
2022/01/06 01:25:07;;;;;;;2.72;1.90;;;5.70;88.20;;;;;;10051024;28;20152;-68
2022/01/06 01:30:02;;;;;;;3.20;1.63;;;5.70;88.10;;;;;;10055835;28;20029;-70
2022/01/06 01:34:59;;;;;;;4.13;1.50;;;5.70;88.20;;;;;;10050183;28;20025;-67
2022/01/06 01:39:50;;;;;;;2.42;1.67;;;5.70;88.40;;;;;;10044218;28;20038;-67
2022/01/06 01:44:42;;;;;;;4.60;2.05;;;5.60;88.70;;;;;;10054932;28;20018;-69
2022/01/06 01:49:47;;;;;;;3.47;1.58;;;5.70;88.50;;;;;;10053234;28;20018;-69
2022/01/06 01:54:38;;;;;;;2.80;1.20;;;5.60;88.60;;;;;;10051439;28;20238;-66
2022/01/06 01:59:29;;;;;;;2.03;1.40;;;5.60;88.90;;;;;;10053744;28;20029;-66
2022/01/06 02:04:20;;;;;;;5.03;1.50;;;5.50;88.90;;;;;;10050242;28;20053;-69
2022/01/06 02:09:11;;;;;;;5.38;1.88;;;5.60;89.20;;;;;;10048280;28;20029;-67
2022/01/06 02:14:05;;;;;;;2.28;1.63;;;5.60;89.10;;;;;;10045707;28;20029;-66
2022/01/06 02:18:55;;;;;;;8.30;2.45;;;5.60;89.10;;;;;;10052575;28;20301;-66
2022/01/06 02:23:46;;;;;;;3.63;1.80;;;5.60;89.10;;;;;;10048312;28;20408;-69
2022/01/06 02:28:37;;;;;;;3.60;1.77;;;5.50;89.30;;;;;;10053354;28;20117;-67
2022/01/06 02:33:28;;;;;;;7.05;1.75;;;5.40;89.60;;;;;;10052550;28;20496;-67
2022/01/06 02:38:19;;;;;;;7.15;2.33;;;5.20;89.80;;;;;;10034381;28;20045;-69
2022/01/06 02:43:14;;;;;;;3.42;1.38;;;5.40;90.00;;;;;;10047678;28;20064;-67
2022/01/06 02:48:08;;;;;;;5.47;2.20;;;5.20;90.20;;;;;;10047707;28;20163;-66
2022/01/06 02:53:02;;;;;;;5.50;2.22;;;5.20;90.20;;;;;;10054280;28;20033;-67
2022/01/06 02:57:53;;;;;;;3.83;1.58;;;5.30;90.20;;;;;;10051683;28;20033;-69
2022/01/06 03:02:46;;;;;;;4.72;2.42;;;5.20;90.30;;;;;;10051817;28;20053;-69
2022/01/06 03:07:37;;;;;;;2.85;1.50;;;5.20;90.30;;;;;;10039188;28;20069;-67
2022/01/06 03:12:33;;;;;;;2.70;2.08;;;5.20;90.40;;;;;;10052179;28;20030;-69
2022/01/06 03:17:24;;;;;;;3.70;2.33;;;5.20;90.40;;;;;;10046233;28;20069;-69
2022/01/06 03:22:15;;;;;;;1.98;1.70;;;5.30;90.50;;;;;;10050201;28;20361;-66
2022/01/06 03:27:05;;;;;;;2.83;1.90;;;5.30;90.60;;;;;;10032341;28;20029;-66
2022/01/06 03:31:58;;;;;;;4.93;2.08;;;5.30;90.60;;;;;;10052945;28;20282;-66
2022/01/06 03:36:49;;;;;;;4.70;1.20;;;5.20;90.80;;;;;;10028650;28;20137;-67
2022/01/06 03:41:40;;;;;;;3.88;1.92;;;5.00;91.10;;;;;;10048292;28;20578;-67
2022/01/06 03:46:30;;;;;;;3.83;1.80;;;5.00;91.10;;;;;;10049001;28;20487;-67
2022/01/06 03:51:23;;;;;;;6.35;1.60;;;5.00;91.10;;;;;;10049868;28;20037;-66
2022/01/06 03:56:14;;;;;;;2.63;1.55;;;5.00;91.20;;;;;;10041005;28;20505;-66
2022/01/06 04:01:04;;;;;;;2.10;1.90;;;4.90;91.40;;;;;;10050034;28;20037;-65
2022/01/06 04:05:55;;;;;;;3.90;1.85;;;5.00;91.30;;;;;;10038830;28;20021;-66
2022/01/06 04:10:46;;;;;;;7.75;2.28;;;5.00;91.30;;;;;;10049175;28;20033;-66
2022/01/06 04:15:36;;;;;;;5.22;1.95;;;5.10;91.30;;;;;;10048747;28;20025;-65
2022/01/06 04:20:27;;;;;;;3.53;1.50;;;5.10;91.30;;;;;;10046627;28;20033;-65
2022/01/06 04:25:18;;;;;;;4.22;2.15;;;4.90;91.50;;;;;;10046472;28;20030;-68
2022/01/06 04:30:09;;;;;;;5.43;2.05;;;4.90;91.70;;;;;;10049122;28;20099;-69
2022/01/06 04:35:01;;;;;;;2.85;1.60;;;4.80;91.80;;;;;;10049042;28;20087;-66
2022/01/06 04:39:51;;;;;;;3.72;1.67;;;4.70;91.90;;;;;;10048141;28;20506;-65
2022/01/06 04:44:42;;;;;;;11.23;2.63;;;4.70;91.90;;;;;;10048690;28;20113;-65
2022/01/06 04:49:33;;;;;;;3.95;1.98;;;4.60;92.00;;;;;;10047064;28;20075;-66
2022/01/06 04:54:23;;;;;;;3.28;1.67;;;4.70;92.10;;;;;;10049470;28;20160;-65
2022/01/06 04:59:14;;;;;;;2.83;1.77;;;4.60;92.10;;;;;;10045657;28;20377;-68
2022/01/06 05:04:05;;;;;;;3.20;1.88;;;4.60;92.10;;;;;;10056039;28;20055;-67
2022/01/06 05:08:56;;;;;;;3.15;1.67;;;4.60;92.30;;;;;;10054979;28;20105;-66
2022/01/06 05:13:47;;;;;;;5.78;1.67;;;4.70;92.30;;;;;;10057425;28;20255;-67
2022/01/06 05:18:38;;;;;;;6.35;1.85;;;4.60;92.40;;;;;;10048276;28;20041;-67
2022/01/06 05:23:29;;;;;;;3.38;1.98;;;4.50;92.40;;;;;;10054134;28;20486;-66
2022/01/06 05:28:20;;;;;;;3.67;1.80;;;4.50;92.50;;;;;;10037904;28;20029;-69
2022/01/06 05:33:12;;;;;;;6.35;3.38;;;4.40;92.70;;;;;;10055425;28;20584;-65
2022/01/06 05:38:03;;;;;;;6.20;1.73;;;4.40;92.60;;;;;;10046121;28;20125;-65
2022/01/06 05:42:56;;;;;;;5.35;2.13;;;4.30;92.80;;;;;;10047557;28;20148;-65
2022/01/06 05:47:47;;;;;;;4.13;1.85;;;4.30;92.80;;;;;;10039361;28;20087;-66
2022/01/06 05:52:37;;;;;;;4.05;2.80;;;4.40;92.80;;;;;;10055089;28;20437;-66
2022/01/06 05:57:28;;;;;;;4.15;1.88;;;4.40;92.90;;;;;;10050362;28;20033;-65
2022/01/06 06:02:19;;;;;;;3.35;1.85;;;4.60;92.80;;;;;;10043805;28;20106;-65
2022/01/06 06:07:09;;;;;;;2.60;1.73;;;4.60;92.90;;;;;;10054274;28;20029;-66
2022/01/06 06:12:00;;;;;;;4.05;2.25;;;4.70;92.90;;;;;;10050095;28;20164;-66
2022/01/06 06:16:51;;;;;;;6.90;2.38;;;4.60;93.10;;;;;;10050289;28;20481;-66
2022/01/06 06:21:41;;;;;;;5.47;2.25;;;4.60;93.10;;;;;;10035160;28;20554;-66
2022/01/06 06:26:32;;;;;;;5.57;1.95;;;4.60;93.00;;;;;;10049225;28;20438;-66
2022/01/06 06:31:23;;;;;;;4.28;2.72;;;4.60;93.20;;;;;;10052745;28;20022;-67
2022/01/06 06:36:13;;;;;;;5.63;2.70;;;4.60;93.30;;;;;;10051623;28;20212;-67
2022/01/06 06:41:04;;;;;;;5.72;1.95;;;4.70;93.20;;;;;;10052514;28;20041;-67
2022/01/06 06:45:55;;;;;;;7.10;2.97;;;4.70;93.10;;;;;;10051065;28;20028;-66
2022/01/06 06:50:45;;;;;;;5.28;2.45;;;4.60;93.30;;;;;;10051958;28;20086;-68
2022/01/06 06:55:36;;;;;;;5.70;2.30;;;4.60;93.20;;;;;;10050969;28;20025;-68
2022/01/06 07:00:27;;;;;;;6.20;2.33;;;4.60;93.30;;;;;;10050671;28;20034;-65
2022/01/06 07:05:18;;;;;;;4.05;2.38;;;4.50;93.40;;;;;;10045038;28;20905;-67
2022/01/06 07:10:09;;;;;;;5.63;2.33;;;4.60;93.40;;;;;;10051245;28;20410;-69
2022/01/06 07:15:02;;;;;;;4.13;2.40;;;4.70;93.50;;;;;;10049933;28;20047;-67
2022/01/06 07:19:53;;;;;;;5.53;1.92;;;4.70;93.40;;;;;;10051757;28;20619;-66
2022/01/06 07:24:43;;;;;;;6.10;2.30;;;4.80;93.40;;;;;;10031574;28;20033;-65
2022/01/06 07:29:34;;;;;;;5.50;3.00;;;4.70;93.50;;;;;;10055002;28;20420;-67
2022/01/06 07:34:27;;;;;;;6.28;2.08;;;4.70;93.60;;;;;;10051637;28;20030;-72
2022/01/06 07:39:27;;;;;;;5.88;2.30;;;4.70;93.60;;;;;;10046684;28;20029;-73
2022/01/06 07:44:18;;;;;;;4.07;2.38;;;4.60;93.60;;;;;;10059825;28;20517;-69
2022/01/06 07:49:09;;;;;;;4.82;2.42;;;4.60;93.70;;;;;;10061972;28;20037;-69
2022/01/06 07:54:00;;;;;;;3.10;2.10;;;4.60;93.70;;;;;;10063396;28;20163;-71
2022/01/06 07:58:52;;;;;;;3.92;2.03;;;4.70;93.70;;;;;;10065958;28;20350;-70
2022/01/06 08:03:43;;;;;;;5.20;2.72;;;4.70;93.70;;;;;;10047112;28;20054;-71
2022/01/06 08:08:34;;;;;;;6.95;4.05;;;4.70;93.60;;;;;;10053995;28;20040;-76
2022/01/06 08:13:25;;;;;;;9.10;3.03;;;4.90;93.70;;;;;;10067324;28;20057;-66
2022/01/06 08:18:16;;;;;;;5.45;2.03;;;4.80;93.70;;;;;;10038557;28;20037;-73
2022/01/06 08:23:07;;;;;;;7.38;2.47;;;4.60;93.90;;;;;;10039379;28;20037;-71
2022/01/06 08:27:58;;;;;;;3.60;2.35;;;4.50;94.10;;;;;;10059535;28;20037;-68
2022/01/06 08:32:54;;;;;;;4.82;2.72;;;4.70;93.90;;;;;;10055709;28;20040;-70
2022/01/06 08:37:45;;;;;;;3.83;2.45;;;4.80;93.90;;;;;;10065845;28;20049;-71
2022/01/06 08:42:36;;;;;;;3.80;2.90;;;4.90;93.90;;;;;;10035131;28;20034;-78
2022/01/06 08:47:26;;;;;;;4.45;2.22;;;4.80;93.90;;;;;;10027433;28;20030;-69
2022/01/06 08:52:17;;;;;;;9.80;3.17;;;4.80;94.10;;;;;;10042803;28;20072;-71
2022/01/06 08:57:08;;;;;;;4.43;2.47;;;4.80;94.00;;;;;;10047780;28;20045;-69
2022/01/06 09:01:58;;;;;;;4.95;2.70;;;4.90;94.00;;;;;;10069498;28;20045;-71
2022/01/06 09:06:50;;;;;;;4.18;2.40;;;4.90;93.90;;;;;;10066208;28;20026;-68
2022/01/06 09:11:42;;;;;;;6.82;3.28;;;5.10;93.80;;;;;;10041551;28;20404;-65
2022/01/06 09:16:39;;;;;;;4.30;3.00;;;5.20;93.70;;;;;;10052157;28;20017;-75
2022/01/06 09:21:30;;;;;;;7.72;3.22;;;5.10;93.60;;;;;;10049603;28;20040;-66
2022/01/06 09:26:20;;;;;;;5.93;2.72;;;5.00;93.70;;;;;;10064058;28;20036;-71
2022/01/06 09:31:11;;;;;;;6.50;2.97;;;5.10;93.70;;;;;;10062764;28;20087;-70
2022/01/06 09:36:02;;;;;;;8.40;2.67;;;5.00;93.60;;;;;;10051147;28;20417;-70
2022/01/06 09:40:53;;;;;;;6.57;2.67;;;5.10;93.70;;;;;;10047294;28;20037;-70
2022/01/06 09:45:44;;;;;;;8.82;2.90;;;5.10;93.70;;;;;;10047273;28;20032;-70
2022/01/06 09:50:41;;;;;;;6.68;2.97;;;5.30;93.60;;;;;;10058296;28;20031;-74
2022/01/06 09:55:34;;;;;;;9.45;3.20;;;5.40;93.40;;;;;;10064265;28;20021;-74
2022/01/06 10:00:26;;;;;;;5.95;2.92;;;5.40;93.60;;;;;;10062493;28;20578;-78
2022/01/06 10:05:17;;;;;;;4.25;2.53;;;5.70;93.60;;;;;;10056050;28;20488;-76
2022/01/06 10:10:10;;;;;;;4.25;3.15;;;5.80;93.50;;;;;;10052640;28;20029;-69
2022/01/06 10:15:18;;;;;;;7.20;4.07;;;5.90;93.60;;;;;;10059760;28;20021;-71
2022/01/06 10:20:14;;;;;;;8.55;3.88;;;6.00;93.60;;;;;;10060533;28;20049;-74
2022/01/06 10:25:07;;;;;;;7.53;3.22;;;6.10;93.70;;;;;;10073923;28;20036;-69
2022/01/06 10:30:07;;;;;;;5.55;2.53;;;6.00;93.80;;;;;;10049683;28;20052;-72
2022/01/06 10:35:02;;;;;;;6.18;3.70;;;6.00;93.60;;;;;;10070285;28;20391;-71
2022/01/06 10:39:57;;;;;;;6.22;3.03;;;6.00;93.70;;;;;;10067208;28;20040;-75
2022/01/06 10:44:55;;;;;;;3.72;2.53;;;6.00;93.60;;;;;;10068697;28;20053;-70
2022/01/06 10:49:45;;;;;;;11.02;2.83;;;6.00;93.60;;;;;;10071066;28;20396;-72
2022/01/06 10:54:37;;;;;;;5.68;2.50;;;6.20;93.40;;;;;;10053744;28;20040;-69
2022/01/06 10:59:32;;;;;;;5.20;2.35;;;6.40;93.30;;;;;;10073773;28;20546;-71
2022/01/06 11:04:27;;;;;;;5.07;3.20;;;6.40;93.30;;;;;;10065805;28;20036;-75
2022/01/06 11:09:18;;;;;;;7.28;2.92;;;6.20;93.20;;;;;;10076240;28;20029;-79
2022/01/06 11:14:14;;;;;;;3.00;2.25;;;6.00;93.10;;;;;;10063079;28;20933;-71
2022/01/06 11:19:05;;;;;;;;;;;6.10;93.10;;;;;;10070988;28;20068;-69
2022/01/06 11:24:13;;;;;;;11.35;2.60;;;6.10;93.00;;;;;;10068667;28;20142;-72
2022/01/06 11:29:04;;;;;;;8.50;2.88;;;6.20;92.90;;;;;;10062932;28;20037;-71
2022/01/06 11:33:56;;;;;;;7.75;3.55;;;6.10;92.80;;;;;;10073240;28;20025;-71
2022/01/06 11:38:49;;;;;;;6.03;2.95;;;5.90;92.70;;;;;;10065840;28;20045;-74
2022/01/06 11:43:42;;;;;;;5.53;3.13;;;5.70;92.70;;;;;;10066991;28;20025;-69
2022/01/06 11:48:44;;;;;;;10.60;4.18;;;5.50;92.60;;;;;;10061333;28;20974;-72
2022/01/06 11:53:35;;;;;;;4.97;2.47;;;5.70;92.50;;;;;;10052476;28;20041;-74
2022/01/06 11:58:26;;;;;;;7.18;2.40;;;5.90;92.60;;;;;;10050591;28;20064;-71
2022/01/06 12:03:18;;;;;;;6.28;1.92;;;5.90;92.10;;;;;;10056157;28;20049;-74
2022/01/06 12:08:09;;;;;;;5.57;2.28;;;6.00;92.10;;;;;;10058431;28;20391;-73
2022/01/06 12:13:00;;;;;;;5.65;3.10;;;6.00;92.10;;;;;;10051667;28;20035;-72
2022/01/06 12:17:52;;;;;;;7.95;2.38;;;6.00;92.10;;;;;;10065193;28;20071;-72
2022/01/06 12:22:45;;;;;;;5.57;1.58;;;6.00;92.00;;;;;;10065923;28;20387;-73
2022/01/06 12:27:48;;;;;;;5.82;1.92;;;6.10;92.10;;;;;;10068181;28;20563;-73
2022/01/06 12:32:39;;;;;;;6.75;2.83;;;6.10;91.90;;;;;;10071652;28;20028;-71
2022/01/06 12:37:31;;;;;;;9.10;2.53;;;6.30;91.90;;;;;;10066853;28;20041;-70
2022/01/06 12:42:26;;;;;;;3.83;1.80;;;6.50;91.80;;;;;;10064280;28;20037;-69
2022/01/06 12:47:17;;;;;;;3.30;1.45;;;6.50;91.70;;;;;;10028581;28;20549;-68
2022/01/06 12:52:11;;;;;;;8.15;2.15;;;6.30;91.70;;;;;;10057079;28;20025;-73
2022/01/06 12:57:02;;;;;;;3.67;2.17;;;6.50;91.70;;;;;;10064230;28;20514;-68
2022/01/06 13:01:56;;;;;;;5.32;2.05;;;6.60;91.60;;;;;;10046297;28;20041;-70
2022/01/06 13:06:47;;;;;;;6.10;2.75;;;6.40;91.60;;;;;;10068699;28;20120;-70
2022/01/06 13:11:51;;;;;;;3.20;2.05;;;6.50;91.50;;;;;;10067995;28;20033;-73
2022/01/06 13:16:42;;;;;;;4.18;2.15;;;6.50;91.30;;;;;;10063595;28;20060;-74
2022/01/06 13:21:34;;;;;;;4.53;1.90;;;6.70;91.20;;;;;;10040605;28;20049;-73
2022/01/06 13:26:30;;;;;;;5.43;2.63;;;7.10;91.20;;;;;;10073290;28;20013;-67
2022/01/06 13:31:25;;;;;;;2.30;1.60;;;7.30;90.90;;;;;;10069440;28;20025;-70
2022/01/06 13:36:33;;;;;;;2.50;1.23;;;7.20;91.00;;;;;;10056405;28;20280;-71
2022/01/06 13:41:25;;;;;;;9.07;2.10;;;7.10;90.90;;;;;;10051891;28;20080;-68
2022/01/06 13:46:27;;;;;;;5.22;2.20;;;7.10;90.80;;;;;;10058587;28;20113;-67
2022/01/06 13:51:19;;;;;;;6.15;2.08;;;7.00;90.60;;;;;;10062692;28;20021;-67
2022/01/06 13:56:32;;;;;;;2.38;1.75;;;7.10;90.50;;;;;;10057660;28;20072;-65
2022/01/06 14:01:27;;;;;;;3.75;1.58;;;7.10;90.40;;;;;;10066577;28;20152;-68
2022/01/06 14:06:19;;;;;;;3.15;1.35;;;7.10;90.30;;;;;;10055884;28;20029;-68
2022/01/06 14:11:14;;;;;;;6.13;1.98;;;7.20;90.20;;;;;;10066630;28;20515;-70
2022/01/06 14:16:06;;;;;;;6.10;1.95;;;7.20;89.80;;;;;;10072932;28;20026;-72
2022/01/06 14:20:58;;;;;;;3.35;1.55;;;7.20;89.70;;;;;;10066590;28;20045;-73
2022/01/06 14:25:49;;;;;;;2.20;0.98;;;7.00;89.60;;;;;;10070638;28;20021;-76
2022/01/06 14:30:41;;;;;;;4.25;1.60;;;6.80;89.30;;;;;;10055531;28;20025;-72
2022/01/06 14:35:33;;;;;;;2.83;1.65;;;6.70;89.30;;;;;;10066979;28;20017;-70
2022/01/06 14:40:24;;;;;;;4.35;1.17;;;6.70;89.00;;;;;;10069004;28;20103;-69
2022/01/06 14:45:15;;;;;;;2.80;1.60;;;6.90;88.70;;;;;;10049970;28;20336;-66
2022/01/06 14:50:07;;;;;;;6.93;2.17;;;6.90;88.30;;;;;;10038754;28;20041;-74
2022/01/06 14:54:58;;;;;;;2.95;1.30;;;6.90;88.40;;;;;;10052501;28;20043;-73
2022/01/06 14:59:48;;;;;;;4.00;1.67;;;6.90;88.30;;;;;;10044870;28;20714;-72
2022/01/06 15:04:39;;;;;;;2.78;1.90;;;6.80;88.30;;;;;;10027126;28;20050;-68
2022/01/06 15:09:30;;;;;;;5.15;1.60;;;6.70;88.40;;;;;;10012228;28;20030;-67
2022/01/06 15:14:20;;;;;;;7.13;2.10;;;6.70;88.50;;;;;;10011923;28;20248;-71
2022/01/06 15:19:11;;;;;;;8.55;1.95;;;6.60;88.80;;;;;;10017961;28;20330;-74
2022/01/06 15:24:06;;;;;;;3.75;2.67;;;6.50;89.00;;;;;;10003058;28;20032;-70
2022/01/06 15:28:57;;;;;;;6.57;2.00;;;6.50;89.10;;;;;;10027761;28;20083;-68
2022/01/06 15:33:48;;;;;;;2.83;2.35;;;6.40;89.60;;;;;;10028974;28;20098;-67
2022/01/06 15:38:38;;;;;;;6.35;3.72;;;6.40;89.60;;;;;;10022794;28;20038;-69
2022/01/06 15:43:29;;;;;;;6.78;2.38;;;6.40;89.50;;;;;;10026141;28;20021;-69
2022/01/06 15:48:20;;;;;;;3.78;2.08;;;6.30;89.70;;;;;;10029121;28;20112;-69
2022/01/06 15:53:12;;;;;;;4.60;2.92;;;6.30;90.00;;;;;;10022558;28;20039;-68
2022/01/06 15:58:04;;;;;;;6.13;1.98;;;6.30;90.00;;;;;;10023366;28;20463;-67
2022/01/06 16:08:13;;;;;;;5.20;1.88;;;6.20;90.20;;;;;;10062496;28;20115;-70
2022/01/06 16:13:07;;;;;;;3.08;2.15;;;6.20;90.10;;;;;;10065806;28;20476;-71
2022/01/06 16:17:58;;;;;;;10.48;2.85;;;6.10;90.30;;;;;;10054457;28;20041;-69
2022/01/06 16:22:51;;;;;;;4.40;2.20;;;6.20;90.30;;;;;;10051962;28;20487;-67
2022/01/06 16:27:42;;;;;;;6.65;3.72;;;6.10;90.40;;;;;;10059473;28;20025;-67
2022/01/06 16:32:32;;;;;;;5.10;2.20;;;6.10;90.40;;;;;;10067687;28;20097;-70
2022/01/06 16:37:27;;;;;;;4.30;2.05;;;6.00;90.50;;;;;;10065027;28;20028;-74
2022/01/06 16:42:18;;;;;;;5.25;1.45;;;6.10;90.50;;;;;;10062780;28;20025;-66
2022/01/06 16:47:09;;;;;;;7.10;2.22;;;6.00;90.50;;;;;;10064115;28;20032;-67
2022/01/06 16:52:00;;;;;;;4.45;2.20;;;6.10;90.60;;;;;;10068179;28;20060;-73
2022/01/06 16:56:51;;;;;;;3.67;1.90;;;6.10;90.60;;;;;;10070198;28;20025;-71
2022/01/06 17:01:41;;;;;;;3.80;1.77;;;6.00;90.60;;;;;;10064636;28;20589;-68
2022/01/06 17:06:33;;;;;;;5.32;1.77;;;5.90;90.70;;;;;;10050620;28;20203;-67
2022/01/06 17:11:24;;;;;;;5.45;1.90;;;5.80;90.90;;;;;;10055709;28;20036;-65
2022/01/06 17:16:14;;;;;;;4.78;1.80;;;5.90;90.80;;;;;;10068770;28;20037;-65
2022/01/06 17:21:05;;;;;;;3.38;2.08;;;5.80;90.80;;;;;;10063323;28;20052;-72
2022/01/06 17:25:56;;;;;;;4.57;1.92;;;5.70;90.90;;;;;;10070384;28;20039;-73
2022/01/06 17:30:49;;;;;;;1.95;1.48;;;5.80;90.90;;;;;;10073126;28;20450;-71
2022/01/06 17:35:39;;;;;;;4.20;1.77;;;5.80;90.90;;;;;;10053629;28;20247;-64
2022/01/06 17:40:31;;;;;;;4.07;2.08;;;5.70;90.90;;;;;;10037386;28;20212;-64
2022/01/06 17:45:22;;;;;;;5.15;2.22;;;5.80;90.90;;;;;;10051610;28;20025;-72
2022/01/06 17:50:13;;;;;;;5.47;1.98;;;5.80;90.80;;;;;;10036724;28;20025;-71
2022/01/06 17:55:04;;;;;;;7.68;2.00;;;5.70;91.00;;;;;;10053112;28;20111;-74
2022/01/06 17:59:55;;;;;;;4.25;2.58;;;5.60;91.10;;;;;;10046881;28;20044;-74
2022/01/06 18:04:47;;;;;;;8.45;2.92;;;5.60;91.00;;;;;;10055240;28;20058;-71
2022/01/06 18:14:48;;;;;;;6.25;2.63;;;5.80;90.90;;;;;;10061278;28;20072;-72
2022/01/06 18:19:38;;;;;;;6.07;2.95;;;5.80;90.80;;;;;;10045336;28;21142;-71
2022/01/06 18:24:29;;;;;;;5.95;2.33;;;5.80;91.00;;;;;;10034364;28;20037;-73
2022/01/06 18:29:23;;;;;;;7.25;2.75;;;5.80;90.90;;;;;;10052476;28;20346;-75
2022/01/06 18:34:14;;;;;;;13.32;2.83;;;5.80;90.90;;;;;;10049347;28;20033;-67
2022/01/06 18:39:06;;;;;;;4.88;2.58;;;5.80;90.90;;;;;;10071378;28;20044;-70
2022/01/06 18:43:56;;;;;;;11.00;2.80;;;5.80;90.90;;;;;;10069356;28;20021;-74
2022/01/06 18:48:49;;;;;;;7.72;2.90;;;5.80;90.90;;;;;;10055221;28;20518;-72
2022/01/06 18:53:44;;;;;;;5.30;2.65;;;5.80;90.90;;;;;;10047530;28;20037;-73
2022/01/06 18:58:35;;;;;;;7.87;2.80;;;5.70;90.90;;;;;;10045133;28;20431;-73
2022/01/06 19:03:27;;;;;;;4.63;1.88;;;5.70;90.90;;;;;;10057957;28;20038;-70
2022/01/06 19:08:18;;;;;;;5.15;2.70;;;5.80;90.90;;;;;;10059122;28;20025;-67
2022/01/06 19:13:09;;;;;;;5.05;2.10;;;5.70;91.00;;;;;;10051069;28;20442;-69
2022/01/06 19:18:04;;;;;;;4.95;2.25;;;5.70;91.10;;;;;;10062257;28;20037;-72
2022/01/06 19:22:55;;;;;;;3.38;2.55;;;5.70;91.10;;;;;;10056244;28;20147;-80
2022/01/06 19:27:46;;;;;;;5.30;2.38;;;5.70;91.10;;;;;;10070678;28;20047;-71
2022/01/06 19:32:43;;;;;;;5.10;2.80;;;5.60;91.30;;;;;;10055448;28;20358;-68
2022/01/06 19:37:34;;;;;;;9.57;3.15;;;5.50;91.60;;;;;;10035847;28;20041;-67
2022/01/06 19:42:31;;;;;;;6.28;3.70;;;5.50;91.40;;;;;;10059802;28;21239;-75
2022/01/06 19:47:22;;;;;;;5.57;3.05;;;5.50;91.40;;;;;;10057842;28;20036;-76
2022/01/06 19:52:12;;;;;;;8.10;3.22;;;5.40;91.40;;;;;;10063087;28;20021;-73
2022/01/06 19:57:03;;;;;;;6.60;3.30;;;5.40;91.40;;;;;;10034387;28;20037;-74
2022/01/06 20:01:55;;;;;;;5.95;3.33;;;5.40;91.40;;;;;;10054511;28;20459;-67
2022/01/06 20:06:45;;;;;;;5.68;3.75;;;5.30;91.40;;;;;;10055708;28;20403;-70
2022/01/06 20:11:36;;;;;;;5.35;3.42;;;5.20;91.30;;;;;;10033648;28;20036;-65
2022/01/06 20:16:27;;;;;;;9.45;4.22;;;5.10;91.40;;;;;;10053806;28;20496;-69
2022/01/06 20:21:18;;;;;;;7.85;3.50;;;4.90;91.40;;;;;;10060069;28;20037;-64
2022/01/06 20:26:09;;;;;;;8.35;4.00;;;4.80;91.50;;;;;;10054763;28;20037;-66
2022/01/06 20:31:00;;;;;;;7.57;4.07;;;4.70;91.50;;;;;;10053951;28;20029;-65
2022/01/06 20:35:52;;;;;;;6.07;2.88;;;4.70;91.50;;;;;;10037497;28;20370;-67
2022/01/06 20:40:43;;;;;;;8.93;3.70;;;4.60;91.50;;;;;;10056557;28;20060;-67
2022/01/06 20:45:35;;;;;;;7.63;3.25;;;4.50;91.50;;;;;;10055990;28;20396;-67
2022/01/06 20:55:37;;;;;;;8.50;3.65;;;4.50;91.50;;;;;;10057877;28;20037;-67
2022/01/06 21:00:27;;;;;;;3.80;2.58;;;4.40;91.70;;;;;;10058918;28;20065;-65
2022/01/06 21:05:18;;;;;;;10.10;3.08;;;4.30;91.70;;;;;;10048510;28;20049;-67
2022/01/06 21:10:09;;;;;;;4.00;2.75;;;4.30;91.80;;;;;;10032963;28;20045;-66
2022/01/06 21:15:00;;;;;;;5.50;3.00;;;4.20;91.90;;;;;;10044745;28;20029;-66
2022/01/06 21:19:52;;;;;;;4.53;2.88;;;4.10;91.80;;;;;;10041522;28;20064;-66
2022/01/06 21:24:47;;;;;;;4.82;2.65;;;4.00;91.90;;;;;;10048910;28;20670;-65
2022/01/06 21:29:37;;;;;;;4.47;2.85;;;4.00;91.90;;;;;;10027814;28;20535;-64
2022/01/06 21:34:33;;;;;;;5.18;2.75;;;3.90;91.90;;;;;;10044045;28;20326;-65
2022/01/06 21:39:24;;;;;;;6.20;3.35;;;3.90;92.00;;;;;;10046099;28;20153;-66
2022/01/06 21:44:15;;;;;;;7.10;4.30;;;3.80;92.10;;;;;;10063353;28;20168;-68
2022/01/06 21:49:06;;;;;;;8.80;3.05;;;3.70;92.10;;;;;;10058579;28;20033;-67
2022/01/06 21:53:57;;;;;;;5.07;3.17;;;3.70;92.20;;;;;;10064081;28;20037;-64
2022/01/06 21:58:49;;;;;;;6.00;3.40;;;3.70;92.20;;;;;;10056044;28;20047;-67
2022/01/06 22:03:40;;;;;;;6.60;3.30;;;3.60;92.20;;;;;;10042133;28;20079;-64
2022/01/06 22:08:35;;;;;;;9.50;3.60;;;3.70;92.10;;;;;;10053490;28;20033;-64
2022/01/06 22:13:26;;;;;;;5.07;3.33;;;3.60;92.30;;;;;;10039769;28;20459;-67
2022/01/06 22:18:17;;;;;;;6.38;2.78;;;3.60;92.30;;;;;;10056548;28;20067;-66
2022/01/06 22:23:08;;;;;;;7.65;3.10;;;3.50;92.40;;;;;;10041730;28;20543;-67
2022/01/06 22:27:59;;;;;;;6.15;3.50;;;3.50;92.40;;;;;;10050761;28;20049;-65
2022/01/06 22:32:50;;;;;;;4.80;3.08;;;3.50;92.30;;;;;;10053288;28;20108;-66
2022/01/06 22:37:40;;;;;;;5.95;3.40;;;3.50;92.50;;;;;;10051867;28;20033;-66
2022/01/06 22:42:31;;;;;;;5.63;2.97;;;3.40;92.60;;;;;;10050861;28;20519;-64
2022/01/06 22:47:21;;;;;;;5.60;2.78;;;3.40;92.60;;;;;;10052653;28;20104;-66
2022/01/06 22:52:12;;;;;;;8.60;3.03;;;3.50;92.50;;;;;;10051553;28;20026;-65
2022/01/06 22:57:07;;;;;;;4.95;2.80;;;3.50;92.50;;;;;;10048618;28;20044;-66
2022/01/06 23:01:59;;;;;;;10.27;3.63;;;3.30;92.60;;;;;;10049195;28;20057;-65
2022/01/06 23:06:49;;;;;;;3.95;2.35;;;3.30;92.60;;;;;;10049372;28;20072;-65
2022/01/06 23:11:40;;;;;;;7.70;3.00;;;3.10;92.70;;;;;;10050364;28;20037;-66
2022/01/06 23:16:31;;;;;;;5.80;3.53;;;3.00;92.80;;;;;;10050812;28;20026;-66
2022/01/06 23:21:25;;;;;;;6.25;3.00;;;3.00;92.80;;;;;;10048414;28;20036;-65
2022/01/06 23:26:15;;;;;;;5.43;2.17;;;3.00;92.80;;;;;;10048560;28;20064;-66
2022/01/06 23:31:06;;;;;;;3.10;2.25;;;2.90;92.80;;;;;;10046815;28;20148;-65
2022/01/06 23:35:57;;;;;;;4.88;2.70;;;2.70;92.90;;;;;;10049619;28;20415;-66
2022/01/06 23:40:47;;;;;;;3.28;2.25;;;2.70;93.00;;;;;;10031824;28;20445;-66
2022/01/06 23:45:38;;;;;;;3.00;1.98;;;2.80;92.90;;;;;;10046565;28;20017;-67
2022/01/06 23:50:29;;;;;;;6.00;2.60;;;2.80;92.90;;;;;;10049950;28;20039;-64
2022/01/06 23:55:22;;;;;;;6.45;2.40;;;2.80;92.80;;;;;;10046830;28;20496;-66
